Apiliotis — SYVY — position and weather

sailwx.info

Track history (hours):
 
Tides and Currents Weather Stations Pressure Air Temp Water Temp Dewpoint Dewpoint Depression Visibility Wind Speed Wind Dir Waves Ship Positions

Apiliotis

Last reported at 2014-Sep-01 22:33 UTC. Time now 2014-Sep-01 23:33 UTC.
Position N 36°52' E 025°31'.

Length 79 m; draft 4.5 m.

Type: Ship. MMSI: 240438000.

Date/timePositionNaut miles runAvg speedWind from/ knotsBaromVisibWave heightAir tempDewpointWater temp
2014-Sep-01 22:33N 36°52' E 025°31'0 0.0
2014-Sep-01 21:33N 36°52' E 025°31'0 0.0
2014-Sep-01 20:33N 36°52' E 025°31'0 0.0
2014-Sep-01 19:33N 36°52' E 025°31'0 0.0
2014-Sep-01 18:33N 36°52' E 025°31'0 0.0
2014-Sep-01 17:33N 36°52' E 025°31'5 5.5
2014-Sep-01 16:33N 36°47' E 025°29'1212.1
2014-Sep-01 15:33N 36°36' E 025°24'1110.7
2014-Sep-01 14:33N 36°25' E 025°24'2 2.0
2014-Sep-01 13:33N 36°23' E 025°26'0 0.0
2014-Sep-01 12:33N 36°23' E 025°26'5 5.0
2014-Sep-01 11:33N 36°27' E 025°22'1211.6
2014-Sep-01 10:33N 36°32' E 025°09'1211.9
2014-Sep-01 09:33N 36°39' E 024°57'1211.8
2014-Sep-01 08:33N 36°48' E 024°47'13 2.9
2014-Sep-01 04:08N 36°59' E 024°40'610.4
2014-Sep-01 03:33N 36°56' E 024°34'1211.6
2014-Sep-01 02:33N 36°48' E 024°23'5 5.4
2014-Sep-01 01:33N 36°43' E 024°27'0 0.0
2014-Sep-01 00:33N 36°43' E 024°27'0 0.0
2014-Aug-31 23:33N 36°43' E 024°27'0 0.0
2014-Aug-31 22:33N 36°43' E 024°27'0 0.0
2014-Aug-31 21:33N 36°43' E 024°27'0 0.0
2014-Aug-31 20:33N 36°43' E 024°27'0 0.0
2014-Aug-31 19:34N 36°43' E 024°27'0 0.0
2014-Aug-31 18:33N 36°43' E 024°27'0 0.0
2014-Aug-31 17:33N 36°43' E 024°27'0 0.0
2014-Aug-31 16:33N 36°43' E 024°27'0 0.3
2014-Aug-31 15:18N 36°43' E 024°27'3 3.2
2014-Aug-31 14:31N 36°44' E 024°24'1111.7
2014-Aug-31 13:33N 36°54' E 024°18'4611.5
2014-Aug-31 09:33N 37°33' E 023°47'1211.8
2014-Aug-31 08:33N 37°44' E 023°40'1110.5
2014-Aug-31 07:33N 37°50' E 023°29'1111.5
2014-Aug-31 06:33N 37°52' E 023°15'7 6.8
2014-Aug-31 05:29N 37°55' E 023°06'0 0.1
2014-Aug-31 04:27N 37°55' E 023°06'0 0.0
2014-Aug-31 03:32N 37°55' E 023°06'0 0.0
2014-Aug-31 01:27N 37°55' E 023°06'0 0.1
2014-Aug-31 00:33N 37°55' E 023°06'0 0.1
2014-Aug-30 23:24N 37°55' E 023°06'0 0.0
2014-Aug-30 22:27N 37°55' E 023°06'0 0.1
2014-Aug-30 21:32N 37°55' E 023°06'0 0.0
2014-Aug-30 20:30N 37°55' E 023°06'0 0.0
2014-Aug-30 19:17N 37°55' E 023°06'0 0.0
2014-Aug-30 18:21N 37°55' E 023°06'0 0.0
2014-Aug-30 13:28N 37°55' E 023°06'0 0.0
2014-Aug-30 12:07N 37°55' E 023°06'0 0.0
2014-Aug-30 11:23N 37°55' E 023°06'0 0.0
2014-Aug-30 10:07N 37°55' E 023°06'0 0.0
2014-Aug-30 09:26N 37°55' E 023°06'0 0.0
2014-Aug-30 07:15N 37°55' E 023°06'0 0.0
2014-Aug-30 06:27N 37°55' E 023°06'0 0.0
2014-Aug-30 05:06N 37°55' E 023°06'0 0.0
2014-Aug-30 03:10N 37°55' E 023°06'1 0.4
2014-Aug-30 01:23N 37°55' E 023°05'0 0.0
2014-Aug-30 00:32N 37°55' E 023°05'0 0.0
2014-Aug-29 23:33N 37°55' E 023°05'0 0.0
2014-Aug-29 22:25N 37°55' E 023°05'0 0.0
2014-Aug-29 21:26N 37°55' E 023°05'0 0.0
2014-Aug-29 20:33N 37°55' E 023°05'0 0.0
2014-Aug-29 19:32N 37°55' E 023°05'0 0.0
2014-Aug-29 18:32N 37°55' E 023°05'0 0.0
2014-Aug-29 17:30N 37°55' E 023°05'0 0.0
2014-Aug-29 16:30N 37°55' E 023°05'0 0.0
2014-Aug-29 15:32N 37°55' E 023°05'0 0.0
2014-Aug-29 14:26N 37°55' E 023°05'4 4.0
2014-Aug-29 13:26N 37°55' E 023°10'1011.0
2014-Aug-29 12:33N 37°57' E 023°22'9 9.3
2014-Aug-29 11:34N 38°02' E 023°32'0 0.1
2014-Aug-29 10:33N 38°02' E 023°32'0 0.0
2014-Aug-29 09:33N 38°02' E 023°32'0 0.0
2014-Aug-29 08:33N 38°02' E 023°32'0 0.0
2014-Aug-29 07:33N 38°02' E 023°32'0 0.0
2014-Aug-29 06:33N 38°02' E 023°32'0 0.0
2014-Aug-29 05:33N 38°02' E 023°32'0 0.0
2014-Aug-29 04:34N 38°02' E 023°32'7 7.2
2014-Aug-29 03:33N 37°55' E 023°36'7 6.6
2014-Aug-29 02:33N 37°49' E 023°40'7 7.4
2014-Aug-29 01:33N 37°43' E 023°44'7 7.0
2014-Aug-29 00:32N 37°39' E 023°51'22 9.0
2014-Aug-28 22:04N 37°27' E 024°16'5 9.1
2014-Aug-28 21:33N 37°25' E 024°20'1 0.3
2014-Aug-28 17:11N 37°24' E 024°22'710.9
2014-Aug-28 16:33N 37°30' E 024°27'1212.0
2014-Aug-28 15:33N 37°32' E 024°42'1111.5
2014-Aug-28 14:33N 37°32' E 024°56'1111.2
2014-Aug-28 13:33N 37°31' E 025°10'1110.9
2014-Aug-28 12:33N 37°39' E 025°20'1211.7
2014-Aug-28 11:33N 37°47' E 025°29'1212.1
2014-Aug-28 10:33N 37°58' E 025°37'1212.1
2014-Aug-28 09:33N 38°08' E 025°45'16 2.6
2014-Aug-28 03:14N 38°24' E 025°53'811.3
2014-Aug-28 02:31N 38°30' E 025°47'56 1.8
2014-Aug-26 18:26N 39°27' E 025°48'  
2014-Aug-24 10:32N 38°14' E 024°36'39 4.8
2014-Aug-24 02:23N 37°39' E 024°57'1011.6
2014-Aug-24 01:33N 37°33' E 025°06'3 2.7
2014-Aug-24 00:33N 37°32' E 025°09'0 0.0
2014-Aug-23 23:33N 37°32' E 025°09'0 0.0
2014-Aug-23 22:33N 37°32' E 025°09'0 0.0
2014-Aug-23 21:33N 37°32' E 025°09'0 0.0
2014-Aug-23 20:33N 37°32' E 025°09'0 0.0
2014-Aug-23 19:33N 37°32' E 025°09'28 1.7
2014-Aug-23 03:33N 37°06' E 025°22'1 0.8
2014-Aug-23 02:33N 37°06' E 025°21'0 0.0
2014-Aug-23 01:33N 37°06' E 025°21'0 0.0
2014-Aug-23 00:33N 37°06' E 025°21'0 0.0
2014-Aug-22 23:33N 37°06' E 025°21'0 0.0
2014-Aug-22 22:33N 37°06' E 025°21'  
Track history (hours):
 
Tides and Currents Weather Stations Pressure Air Temp Water Temp Dewpoint Dewpoint Depression Visibility Wind Speed Wind Dir Waves Ship Positions

Apiliotis

Last reported at 2014-Sep-01 22:33 UTC. Time now 2014-Sep-01 23:33 UTC.
Position N 36°52' E 025°31'.

Length 79 m; draft 4.5 m.

Type: Ship. MMSI: 240438000.

Date/timePositionNaut miles runAvg speedWind from/ knotsBaromVisibWave heightAir tempDewpointWater temp
2014-Sep-01 22:33N 36°52' E 025°31'0 0.0
2014-Sep-01 21:33N 36°52' E 025°31'0 0.0
2014-Sep-01 20:33N 36°52' E 025°31'0 0.0
2014-Sep-01 19:33N 36°52' E 025°31'0 0.0
2014-Sep-01 18:33N 36°52' E 025°31'0 0.0
2014-Sep-01 17:33N 36°52' E 025°31'5 5.5
2014-Sep-01 16:33N 36°47' E 025°29'1212.1
2014-Sep-01 15:33N 36°36' E 025°24'1110.7
2014-Sep-01 14:33N 36°25' E 025°24'2 2.0
2014-Sep-01 13:33N 36°23' E 025°26'0 0.0
2014-Sep-01 12:33N 36°23' E 025°26'5 5.0
2014-Sep-01 11:33N 36°27' E 025°22'1211.6
2014-Sep-01 10:33N 36°32' E 025°09'1211.9
2014-Sep-01 09:33N 36°39' E 024°57'1211.8
2014-Sep-01 08:33N 36°48' E 024°47'13 2.9
2014-Sep-01 04:08N 36°59' E 024°40'610.4
2014-Sep-01 03:33N 36°56' E 024°34'1211.6
2014-Sep-01 02:33N 36°48' E 024°23'5 5.4
2014-Sep-01 01:33N 36°43' E 024°27'0 0.0
2014-Sep-01 00:33N 36°43' E 024°27'0 0.0
2014-Aug-31 23:33N 36°43' E 024°27'0 0.0
2014-Aug-31 22:33N 36°43' E 024°27'0 0.0
2014-Aug-31 21:33N 36°43' E 024°27'0 0.0
2014-Aug-31 20:33N 36°43' E 024°27'0 0.0
2014-Aug-31 19:34N 36°43' E 024°27'0 0.0
2014-Aug-31 18:33N 36°43' E 024°27'0 0.0
2014-Aug-31 17:33N 36°43' E 024°27'0 0.0
2014-Aug-31 16:33N 36°43' E 024°27'0 0.3
2014-Aug-31 15:18N 36°43' E 024°27'3 3.2
2014-Aug-31 14:31N 36°44' E 024°24'1111.7
2014-Aug-31 13:33N 36°54' E 024°18'4611.5
2014-Aug-31 09:33N 37°33' E 023°47'1211.8
2014-Aug-31 08:33N 37°44' E 023°40'1110.5
2014-Aug-31 07:33N 37°50' E 023°29'1111.5
2014-Aug-31 06:33N 37°52' E 023°15'7 6.8
2014-Aug-31 05:29N 37°55' E 023°06'0 0.1
2014-Aug-31 04:27N 37°55' E 023°06'0 0.0
2014-Aug-31 03:32N 37°55' E 023°06'0 0.0
2014-Aug-31 01:27N 37°55' E 023°06'0 0.1
2014-Aug-31 00:33N 37°55' E 023°06'0 0.1
2014-Aug-30 23:24N 37°55' E 023°06'0 0.0
2014-Aug-30 22:27N 37°55' E 023°06'0 0.1
2014-Aug-30 21:32N 37°55' E 023°06'0 0.0
2014-Aug-30 20:30N 37°55' E 023°06'0 0.0
2014-Aug-30 19:17N 37°55' E 023°06'0 0.0
2014-Aug-30 18:21N 37°55' E 023°06'0 0.0
2014-Aug-30 13:28N 37°55' E 023°06'0 0.0
2014-Aug-30 12:07N 37°55' E 023°06'0 0.0
2014-Aug-30 11:23N 37°55' E 023°06'0 0.0
2014-Aug-30 10:07N 37°55' E 023°06'0 0.0
2014-Aug-30 09:26N 37°55' E 023°06'0 0.0
2014-Aug-30 07:15N 37°55' E 023°06'0 0.0
2014-Aug-30 06:27N 37°55' E 023°06'0 0.0
2014-Aug-30 05:06N 37°55' E 023°06'0 0.0
2014-Aug-30 03:10N 37°55' E 023°06'1 0.4
2014-Aug-30 01:23N 37°55' E 023°05'0 0.0
2014-Aug-30 00:32N 37°55' E 023°05'0 0.0
2014-Aug-29 23:33N 37°55' E 023°05'0 0.0
2014-Aug-29 22:25N 37°55' E 023°05'0 0.0
2014-Aug-29 21:26N 37°55' E 023°05'0 0.0
2014-Aug-29 20:33N 37°55' E 023°05'0 0.0
2014-Aug-29 19:32N 37°55' E 023°05'0 0.0
2014-Aug-29 18:32N 37°55' E 023°05'0 0.0
2014-Aug-29 17:30N 37°55' E 023°05'0 0.0
2014-Aug-29 16:30N 37°55' E 023°05'0 0.0
2014-Aug-29 15:32N 37°55' E 023°05'0 0.0
2014-Aug-29 14:26N 37°55' E 023°05'4 4.0
2014-Aug-29 13:26N 37°55' E 023°10'1011.0
2014-Aug-29 12:33N 37°57' E 023°22'9 9.3
2014-Aug-29 11:34N 38°02' E 023°32'0 0.1
2014-Aug-29 10:33N 38°02' E 023°32'0 0.0
2014-Aug-29 09:33N 38°02' E 023°32'0 0.0
2014-Aug-29 08:33N 38°02' E 023°32'0 0.0
2014-Aug-29 07:33N 38°02' E 023°32'0 0.0
2014-Aug-29 06:33N 38°02' E 023°32'0 0.0
2014-Aug-29 05:33N 38°02' E 023°32'0 0.0
2014-Aug-29 04:34N 38°02' E 023°32'7 7.2
2014-Aug-29 03:33N 37°55' E 023°36'7 6.6
2014-Aug-29 02:33N 37°49' E 023°40'7 7.4
2014-Aug-29 01:33N 37°43' E 023°44'7 7.0
2014-Aug-29 00:32N 37°39' E 023°51'22 9.0
2014-Aug-28 22:04N 37°27' E 024°16'5 9.1
2014-Aug-28 21:33N 37°25' E 024°20'1 0.3
2014-Aug-28 17:11N 37°24' E 024°22'710.9
2014-Aug-28 16:33N 37°30' E 024°27'1212.0
2014-Aug-28 15:33N 37°32' E 024°42'1111.5
2014-Aug-28 14:33N 37°32' E 024°56'1111.2
2014-Aug-28 13:33N 37°31' E 025°10'1110.9
2014-Aug-28 12:33N 37°39' E 025°20'1211.7
2014-Aug-28 11:33N 37°47' E 025°29'1212.1
2014-Aug-28 10:33N 37°58' E 025°37'1212.1
2014-Aug-28 09:33N 38°08' E 025°45'16 2.6
2014-Aug-28 03:14N 38°24' E 025°53'811.3
2014-Aug-28 02:31N 38°30' E 025°47'56 1.8
2014-Aug-26 18:26N 39°27' E 025°48'  
2014-Aug-24 10:32N 38°14' E 024°36'39 4.8
2014-Aug-24 02:23N 37°39' E 024°57'1011.6
2014-Aug-24 01:33N 37°33' E 025°06'3 2.7
2014-Aug-24 00:33N 37°32' E 025°09'0 0.0
2014-Aug-23 23:33N 37°32' E 025°09'0 0.0
2014-Aug-23 22:33N 37°32' E 025°09'0 0.0
2014-Aug-23 21:33N 37°32' E 025°09'0 0.0
2014-Aug-23 20:33N 37°32' E 025°09'0 0.0
2014-Aug-23 19:33N 37°32' E 025°09'28 1.7
2014-Aug-23 03:33N 37°06' E 025°22'1 0.8
2014-Aug-23 02:33N 37°06' E 025°21'0 0.0
2014-Aug-23 01:33N 37°06' E 025°21'0 0.0
2014-Aug-23 00:33N 37°06' E 025°21'0 0.0
2014-Aug-22 23:33N 37°06' E 025°21'0 0.0
2014-Aug-22 22:33N 37°06' E 025°21'  

Dump ship's entire track history